• Join FlightAware (Why Join?)
  • Login
  • US Flag 
06:01AM EDT


 

Airport Tracker/Info


-or-


 

Live Flight TrackerFlight Track Log ✈ N121JM ✈ 21-Nov-2013 ✈ KMMU - KFDK

Flight Track Log - Related Links

Times and Time Zones

All times are in EST time to prevent confusion due to time zone crossing. See the N121JM flight status page for this flight to view local times or setup timezone preferences in your user account.

Time Position Orientation Groundspeed Altitude Reporting Facility
EST Latitude Longitude Course Direction KTS MPH feet Rate Location/Type
02:17PM 40.7333 -74.4333 227° Southwest 201 231 3,500  Level New York TRACON
02:18PM 40.6667 -74.4000 159° South 242 278 5,700 2,100 Climbing New York TRACON
02:19PM 40.6000 -74.3833 169° South 268 308 7,700 2,280 Climbing New York TRACON
02:20PM 40.5333 -74.4333 210° Southwest 271 312 10,300 1,920 Climbing New York TRACON
02:21PM 40.5167 -74.5333 258° West 309 356 11,600 1,080 Climbing New York TRACON
02:22PM 40.6149 -74.8267 227° Southwest  Level Estimated
02:23PM 40.4511 -74.8047 252° West 350 403 14,000  Level New York Center
02:24PM 40.4231 -74.9503 256° West 374 430 14,000 1,080 Level New York Center
02:30PM 40.1984 -75.5970 256° West 422 486 21,400 1,200 Climbing FlightAware ADS-B
02:31PM 40.1253 -75.7404 236° Southwest 422 486 21,800 420 Climbing FlightAware ADS-B (KAPG)
02:31PM 40.0624 -75.8647 237° Southwest 425 489 22,100  Climbing FlightAware ADS-B
02:32PM 40.0271 -75.9322 236° Southwest 417 480 21,900 -420 Descending FlightAware ADS-B (KAPG)
02:33PM 39.9784 -76.0253 236° Southwest 415 478 21,400 -1,140 Descending FlightAware ADS-B (KAPG)
02:34PM 39.9103 -76.1668 238° Southwest 418 481 20,500 -1,320 Descending FlightAware ADS-B (KAPG)
02:34PM 39.8749 -76.2410 238° Southwest 417 480 19,800 -1,200 Descending FlightAware ADS-B (KAPG)
02:35PM 39.8465 -76.2992 238° Southwest 406 467 19,000 -1,380 Descending FlightAware ADS-B (KAPG)
02:36PM 39.7865 -76.4131 236° Southwest 392 451 17,900 -1,740 Descending FlightAware ADS-B (KAPG)
02:36PM 39.7485 -76.4832 235° Southwest 380 437 16,800 -2,340 Descending FlightAware ADS-B (KAPG)
02:37PM 39.7103 -76.5569 236° Southwest 366 421 14,900 -2,700 Descending FlightAware ADS-B (KAPG)
02:38PM 39.6500 -76.6833 236° Southwest 347 399 12,000 -2,580 Descending Potomac TRACON
02:39PM 39.6167 -76.7667 243° Southwest 299 344 9,700 -2,340 Descending Potomac TRACON
02:40PM 39.5833 -76.8667 247° West 274 315 7,400 -1,860 Descending Potomac TRACON
02:41PM 39.5667 -76.9500 255° West 248 285 5,800 -1,920 Descending Potomac TRACON
02:42PM 39.5333 -77.0333 243° Southwest 230 265 3,600 -1,500 Descending Potomac TRACON
02:43PM 39.5167 -77.0833 247° West 200 230 3,000 -360 Descending Potomac TRACON
02:44PM 39.5000 -77.1500 252° West 195 224 3,000 -240 Level Potomac TRACON
02:45PM 39.5000 -77.2333 270° West 205 236 2,600 -540 Descending Potomac TRACON
02:46PM 39.4833 -77.3000 252° West 174 200 1,900 -420 Descending Potomac TRACON
02:47PM 39.4667 -77.3500 247° West 157 181 1,800 -120 Descending Potomac TRACON